Time;durP1;ratioP1;P1;durP2;ratioP2;P2;SDS_P1;SDS_P2;PMS_P1;PMS_P2;Temp;Humidity;BMP_temperature;BMP_pressure;BME280_temperature;BME280_humidity;BME280_pressure;Samples;Min_cycle;Max_cycle;Signal;HPM_P1;HPM_P2
2022/06/21 00:01:01;;;;;;;9.00;4.50;;;;;;;25.15;56.67;99074.75;4394636;32;33672;-73
2022/06/21 00:03:35;;;;;;;8.30;5.07;;;;;;;25.17;56.59;99086.50;4382779;32;34462;-73
2022/06/21 00:06:05;;;;;;;6.87;4.50;;;;;;;25.42;55.76;99076.56;4394440;32;33329;-73
2022/06/21 00:08:37;;;;;;;9.85;4.93;;;;;;;25.25;56.51;99071.69;4394473;32;31705;-73
2022/06/21 00:11:22;;;;;;;11.00;4.87;;;;;;;25.30;56.29;99072.72;4406785;32;33600;-73
2022/06/21 00:13:49;;;;;;;12.13;4.87;;;;;;;25.63;54.89;99071.22;4394286;32;33872;-74
2022/06/21 00:16:18;;;;;;;11.02;5.12;;;;;;;25.46;55.61;99071.13;4394329;32;33892;-73
2022/06/21 00:18:48;;;;;;;10.15;4.78;;;;;;;25.62;54.80;99080.78;4394278;32;34071;-73
2022/06/21 00:21:24;;;;;;;8.50;5.15;;;;;;;25.66;54.58;99079.03;4407071;32;32663;-74
2022/06/21 00:23:56;;;;;;;9.93;4.78;;;;;;;25.58;54.98;99088.22;4394236;32;34218;-72
2022/06/21 00:26:29;;;;;;;10.30;4.70;;;;;;;25.40;55.45;99098.53;4392458;32;33983;-72
2022/06/21 00:28:57;;;;;;;8.75;4.65;;;;;;;25.68;54.68;99113.25;4381343;32;33183;-72
2022/06/21 00:31:30;;;;;;;8.95;4.60;;;;;;;25.46;55.63;99116.91;4394062;32;33710;-73
2022/06/21 00:34:04;;;;;;;8.38;4.80;;;;;;;25.33;56.08;99102.97;4393944;32;34568;-72
2022/06/21 00:36:35;;;;;;;11.80;5.30;;;;;;;25.28;56.26;99113.19;4394018;32;34051;-73
2022/06/21 00:39:09;;;;;;;8.25;5.00;;;;;;;25.00;57.12;99117.25;4394070;32;32743;-72
2022/06/21 00:41:41;;;;;;;12.50;4.65;;;;;;;25.31;55.96;99122.94;4393844;32;34442;-72
2022/06/21 00:44:15;;;;;;;11.65;4.65;;;;;;;25.05;56.61;99125.56;4393901;32;33019;-72
2022/06/21 00:46:47;;;;;;;10.52;4.28;;;;;;;24.67;56.88;99122.25;4381034;32;32946;-72
2022/06/21 00:49:26;;;;;;;9.80;3.97;;;;;;;24.60;56.62;99110.63;4365750;32;31720;-72
2022/06/21 00:51:59;;;;;;;8.73;4.00;;;;;;;24.62;55.68;99113.94;4378303;32;33606;-72
2022/06/21 00:54:41;;;;;;;5.97;3.47;;;;;;;24.50;54.77;99108.87;4378181;32;35147;-72
2022/06/21 00:57:16;;;;;;;10.65;4.47;;;;;;;24.63;54.19;99105.19;4365480;32;33101;-72
2022/06/21 00:59:45;;;;;;;8.30;4.30;;;;;;;24.83;53.73;99105.84;4377900;32;32923;-72
2022/06/21 01:02:42;;;;;;;12.30;4.47;;;;;;;24.73;54.05;99104.09;4378000;32;33134;-72
2022/06/21 01:05:13;;;;;;;7.28;3.90;;;;;;;24.24;55.65;99110.53;4362406;32;35025;-72
2022/06/21 01:07:46;;;;;;;5.72;3.50;;;;;;;24.30;55.50;99100.91;4365425;32;32366;-72
2022/06/21 01:10:16;;;;;;;6.22;3.97;;;;;;;24.43;54.84;99088.81;4377370;32;31855;-72
2022/06/21 01:12:55;;;;;;;7.68;3.78;;;;;;;24.03;55.82;99084.09;4377022;32;33586;-72
2022/06/21 01:15:36;;;;;;;9.15;3.80;;;;;;;24.36;54.90;99110.84;4379158;32;35169;-72
2022/06/21 01:18:07;;;;;;;7.32;3.55;;;;;;;24.23;54.94;99094.84;4377204;32;32466;-72
2022/06/21 01:20:37;;;;;;;7.43;3.83;;;;;;;24.14;54.98;99094.75;4377540;32;33177;-72
2022/06/21 01:23:12;;;;;;;9.18;3.87;;;;;;;23.87;55.65;99103.19;4365287;32;33212;-72
2022/06/21 01:25:51;;;;;;;7.47;3.75;;;;;;;23.93;55.00;99108.38;4379030;32;34344;-72
2022/06/21 01:28:20;;;;;;;10.80;3.83;;;;;;;24.06;54.61;99112.28;4377589;32;33948;-72
2022/06/21 01:30:53;;;;;;;7.30;3.72;;;;;;;23.75;55.22;99114.91;4387760;32;33109;-72
2022/06/21 01:33:28;;;;;;;7.45;3.35;;;;;;;23.36;55.90;99131.31;4393020;32;34644;-72
2022/06/21 01:36:01;;;;;;;5.18;3.00;;;;;;;23.28;55.62;99133.66;4380651;32;34561;-72
2022/06/21 01:38:35;;;;;;;7.80;3.25;;;;;;;22.97;56.47;99138.09;4393085;32;33678;-72
2022/06/21 01:41:08;;;;;;;6.90;2.92;;;;;;;23.34;55.01;99142.81;4394136;32;34373;-72
2022/06/21 01:43:41;;;;;;;8.30;3.30;;;;;;;23.80;53.45;99140.03;4380247;32;32726;-72
2022/06/21 01:46:13;;;;;;;9.85;3.40;;;;;;;23.61;53.89;99130.84;4392651;32;34422;-72
2022/06/21 01:48:44;;;;;;;6.50;3.12;;;;;;;23.45;54.16;99133.06;4380299;32;32430;-72
2022/06/21 01:51:33;;;;;;;6.78;3.70;;;;;;;23.15;54.82;99137.25;4392902;32;34025;-72
2022/06/21 01:54:03;;;;;;;9.05;3.85;;;;;;;22.90;55.54;99140.44;4380190;32;32323;-72
2022/06/21 01:56:33;;;;;;;8.93;3.50;;;;;;;22.63;56.31;99144.75;4380278;32;33792;-72
2022/06/21 01:59:10;;;;;;;7.18;3.67;;;;;;;22.97;55.20;99158.50;4392400;32;34010;-72
2022/06/21 02:01:45;;;;;;;8.15;4.12;;;;;;;22.49;56.62;99157.78;4392808;32;34232;-72
2022/06/21 02:04:24;;;;;;;7.90;4.28;;;;;;;22.50;56.49;99153.88;4367995;32;33933;-72
2022/06/21 02:06:52;;;;;;;7.65;4.40;;;;;;;22.76;55.98;99157.13;4392441;32;32919;-72
2022/06/21 02:09:34;;;;;;;8.60;4.75;;;;;;;23.05;54.96;99165.41;4380262;32;33888;-73
2022/06/21 02:12:09;;;;;;;7.18;4.43;;;;;;;23.13;54.83;99166.69;4392641;32;33236;-72
2022/06/21 02:14:43;;;;;;;7.78;4.72;;;;;;;22.62;56.39;99167.41;4392768;32;34582;-73
2022/06/21 02:17:38;;;;;;;9.57;4.53;;;;;;;22.53;56.76;99183.19;4380007;32;33867;-73
2022/06/21 02:20:23;;;;;;;10.05;4.90;;;;;;;22.72;56.18;99172.03;4380026;32;33241;-72
2022/06/21 02:22:51;;;;;;;7.90;4.78;;;;;;;22.33;57.40;99181.50;4380246;32;33341;-72
2022/06/21 02:25:22;;;;;;;8.10;5.18;;;;;;;22.26;57.84;99175.44;4392782;32;33751;-73
2022/06/21 02:28:02;;;;;;;8.68;5.43;;;;;;;22.70;56.54;99179.91;4393651;32;34338;-73
2022/06/21 02:30:31;;;;;;;8.45;5.45;;;;;;;22.67;56.57;99182.16;4392523;32;34562;-73
2022/06/21 02:33:00;;;;;;;9.77;5.57;;;;;;;22.87;55.84;99169.84;4380224;32;32099;-73
2022/06/21 02:35:53;;;;;;;11.40;4.85;;;;;;;22.87;55.71;99169.03;4392840;32;33921;-73
2022/06/21 02:38:26;;;;;;;9.45;4.28;;;;;;;23.15;54.93;99167.22;4392360;32;34441;-73
2022/06/21 02:41:05;;;;;;;6.97;4.15;;;;;;;23.13;54.00;99159.12;4392819;32;33945;-73
2022/06/21 02:43:38;;;;;;;7.72;3.65;;;;;;;22.80;53.22;99162.97;4392532;32;33312;-73
2022/06/21 02:46:13;;;;;;;6.28;3.60;;;;;;;22.15;54.30;99157.13;4393715;32;34533;-73
2022/06/21 02:48:52;;;;;;;9.93;4.12;;;;;;;22.33;53.25;99165.56;4379799;32;32683;-73
2022/06/21 02:51:24;;;;;;;6.60;3.40;;;;;;;22.40;52.65;99158.75;4392713;32;33983;-72
2022/06/21 02:54:01;;;;;;;9.50;4.20;;;;;;;22.39;52.46;99169.13;4379878;32;31700;-72
2022/06/21 02:56:38;;;;;;;5.87;3.30;;;;;;;21.73;54.00;99172.66;4380154;32;33776;-73
2022/06/21 02:59:06;;;;;;;7.47;3.28;;;;;;;22.21;52.98;99187.50;4392513;32;34647;-72
2022/06/21 03:01:38;;;;;;;7.70;3.58;;;;;;;22.18;53.09;99190.06;4392581;32;33479;-72
2022/06/21 03:04:09;;;;;;;5.72;3.60;;;;;;;21.73;54.33;99196.97;4392736;32;33905;-72
2022/06/21 03:06:36;;;;;;;8.10;4.00;;;;;;;21.22;56.16;99211.38;4379693;32;33216;-73
2022/06/21 03:09:08;;;;;;;9.02;4.12;;;;;;;20.66;58.14;99218.13;4379935;32;35106;-72
2022/06/21 03:11:41;;;;;;;7.45;4.28;;;;;;;21.05;56.96;99228.47;4391599;32;33998;-72
2022/06/21 03:14:12;;;;;;;6.78;4.30;;;;;;;21.18;56.66;99238.16;4379672;32;32875;-72
2022/06/21 03:16:42;;;;;;;7.37;4.62;;;;;;;20.86;57.65;99235.84;4392381;32;33680;-72
2022/06/21 03:19:38;;;;;;;9.60;4.45;;;;;;;21.09;57.10;99234.31;4393377;32;35019;-72
2022/06/21 03:22:24;;;;;;;7.32;4.18;;;;;;;21.38;56.42;99243.62;4380047;32;34730;-72
2022/06/21 03:24:54;;;;;;;7.40;4.37;;;;;;;20.95;57.64;99240.53;4392274;32;33391;-73
2022/06/21 03:27:36;;;;;;;11.15;4.93;;;;;;;21.03;57.54;99247.47;4392511;32;33884;-72
2022/06/21 03:30:05;;;;;;;8.30;4.40;;;;;;;21.12;57.02;99247.69;4389254;32;34492;-72
2022/06/21 03:32:39;;;;;;;7.70;4.03;;;;;;;21.01;57.38;99246.91;4377417;32;33597;-72
2022/06/21 03:35:07;;;;;;;6.55;3.95;;;;;;;21.62;55.41;99257.66;4389268;32;33128;-72
2022/06/21 03:37:38;;;;;;;9.77;4.10;;;;;;;20.81;57.28;99255.38;4377061;32;33754;-72
2022/06/21 03:42:57;;;;;;;6.75;3.35;;;;;;;21.32;55.05;99269.91;4387840;32;33780;-73
2022/06/21 03:45:32;;;;;;;6.68;3.55;;;;;;;21.27;54.38;99295.06;4376907;32;31281;-73
2022/06/21 03:48:21;;;;;;;5.82;3.42;;;;;;;21.03;55.26;99290.13;4377113;32;33427;-72
2022/06/21 03:50:55;;;;;;;6.97;3.53;;;;;;;21.33;54.33;99278.00;4364568;32;35134;-72
2022/06/21 03:53:30;;;;;;;5.57;2.72;;;;;;;21.36;53.51;99288.59;4364734;32;34724;-72
2022/06/21 03:56:10;;;;;;;4.37;2.17;;;;;;;20.99;52.79;99291.00;4376831;32;31819;-73
2022/06/21 03:59:00;;;;;;;5.57;2.28;;;;;;;20.77;51.91;99308.16;4377078;32;32462;-73
2022/06/21 04:01:38;;;;;;;4.45;2.20;;;;;;;21.27;49.93;99295.06;4377052;32;34391;-72
2022/06/21 04:04:26;;;;;;;6.72;2.10;;;;;;;20.82;50.83;99291.34;4377991;32;33772;-72
2022/06/21 04:07:15;;;;;;;5.53;2.28;;;;;;;21.05;50.25;99292.66;4376895;32;34320;-72
2022/06/21 04:10:02;;;;;;;8.43;2.10;;;;;;;20.91;50.89;99295.22;4370073;32;33639;-72
2022/06/21 04:12:41;;;;;;;7.93;2.58;;;;;;;20.71;50.99;99285.03;4377055;32;34337;-72
2022/06/21 04:15:15;;;;;;;4.57;2.20;;;;;;;20.63;51.21;99288.41;4364244;32;32461;-72
2022/06/21 04:17:56;;;;;;;5.45;2.10;;;;;;;20.84;50.25;99300.28;4378157;32;33922;-71
2022/06/21 04:20:49;;;;;;;3.58;1.90;;;;;;;20.44;50.68;99292.09;4376764;32;34495;-72
2022/06/21 04:23:28;;;;;;;4.05;1.90;;;;;;;20.47;50.10;99295.13;4388732;32;34359;-72
2022/06/21 04:26:03;;;;;;;4.70;1.90;;;;;;;20.65;48.40;99300.09;4388647;32;33857;-73
2022/06/21 04:28:38;;;;;;;3.05;1.80;;;;;;;20.29;47.62;99292.91;4377592;32;34110;-72
2022/06/21 04:31:15;;;;;;;5.07;1.73;;;;;;;20.32;47.38;99287.63;4391196;32;33784;-72
2022/06/21 04:34:03;;;;;;;3.15;1.45;;;;;;;20.66;45.60;99298.97;4366730;32;34613;-73
2022/06/21 04:36:37;;;;;;;6.15;1.90;;;;;;;20.81;44.94;99302.81;4391484;32;34003;-72
2022/06/21 04:39:18;;;;;;;3.65;1.45;;;;;;;20.67;44.50;99308.19;4392685;32;33210;-72
2022/06/21 04:41:46;;;;;;;3.33;1.87;;;;;;;20.42;44.93;99309.09;4391689;32;33585;-75
2022/06/21 04:44:23;;;;;;;2.50;1.40;;;;;;;20.32;45.19;99312.69;4391089;32;33962;-72
2022/06/21 04:47:04;;;;;;;5.80;1.80;;;;;;;20.02;46.06;99307.19;4378720;32;33443;-73
2022/06/21 04:49:56;;;;;;;2.95;1.45;;;;;;;20.26;45.62;99313.00;4366397;32;32660;-74
2022/06/21 04:52:34;;;;;;;2.55;1.25;;;;;;;20.37;45.15;99314.63;4379057;32;34433;-74
2022/06/21 04:55:04;;;;;;;2.83;1.30;;;;;;;20.23;45.11;99319.12;4391106;32;34474;-74
2022/06/21 04:57:32;;;;;;;5.93;1.80;;;;;;;20.43;44.61;99307.97;4391276;32;34760;-74
2022/06/21 05:00:07;;;;;;;4.70;1.40;;;;;;;20.59;43.91;99317.97;4391250;32;34038;-74
2022/06/21 05:02:41;;;;;;;3.10;1.58;;;;;;;20.79;43.68;99321.81;4378626;32;34525;-73
2022/06/21 05:05:16;;;;;;;5.18;1.30;;;;;;;20.27;44.88;99312.72;4378940;32;34642;-74
2022/06/21 05:07:51;;;;;;;3.60;1.60;;;;;;;20.59;44.54;99326.31;4377291;32;32576;-74
2022/06/21 05:10:26;;;;;;;3.58;1.40;;;;;;;20.76;44.44;99326.00;4392543;32;33234;-73
2022/06/21 05:12:55;;;;;;;3.65;1.52;;;;;;;20.65;44.71;99333.56;4365951;32;32455;-74
2022/06/21 05:15:25;;;;;;;2.85;1.45;;;;;;;20.94;43.41;99344.03;4378590;32;35234;-74
2022/06/21 05:17:56;;;;;;;3.65;1.23;;;;;;;20.98;43.43;99334.81;4378282;32;33272;-73
2022/06/21 05:20:27;;;;;;;2.85;1.27;;;;;;;20.76;43.82;99327.94;4378397;32;32647;-73
2022/06/21 05:22:58;;;;;;;3.00;1.35;;;;;;;20.91;43.42;99331.50;4391469;32;33765;-74
2022/06/21 05:25:27;;;;;;;3.17;1.30;;;;;;;21.04;43.11;99335.63;4408173;32;34407;-74
2022/06/21 05:28:04;;;;;;;6.05;1.62;;;;;;;20.55;44.10;99330.81;4407659;32;34667;-74
2022/06/21 05:30:41;;;;;;;5.85;1.50;;;;;;;20.61;44.62;99342.78;4407289;32;33073;-74
2022/06/21 05:33:20;;;;;;;4.72;1.42;;;;;;;21.05;43.42;99354.03;4408119;32;32416;-74
2022/06/21 05:35:48;;;;;;;3.85;1.37;;;;;;;20.45;44.13;99344.75;4423076;32;35200;-74
2022/06/21 05:38:22;;;;;;;5.72;1.62;;;;;;;20.69;44.63;99336.63;4409941;32;34593;-74
2022/06/21 05:40:56;;;;;;;2.40;1.45;;;;;;;21.34;43.83;99340.25;4398038;32;32806;-74
2022/06/21 05:43:35;;;;;;;3.70;1.27;;;;;;;21.07;42.58;99359.31;4410325;32;32264;-74
2022/06/21 05:46:07;;;;;;;5.32;1.40;;;;;;;21.25;41.87;99350.34;4410467;32;34077;-74
2022/06/21 05:48:36;;;;;;;1.95;1.15;;;;;;;21.38;41.67;99349.72;4410539;32;33852;-74
2022/06/21 05:51:08;;;;;;;7.03;1.37;;;;;;;20.99;41.28;99356.00;4423079;32;33352;-74
2022/06/21 05:53:41;;;;;;;2.30;1.00;;;;;;;21.01;40.97;99361.31;4410414;32;33218;-74
2022/06/21 05:56:12;;;;;;;2.97;1.10;;;;;;;21.17;40.98;99356.50;4410012;32;32827;-74
2022/06/21 05:58:52;;;;;;;7.32;2.55;;;;;;;20.97;41.08;99361.03;4410202;32;33813;-74
2022/06/21 06:01:46;;;;;;;2.53;1.33;;;;;;;21.30;41.22;99373.50;4422836;32;33082;-74
2022/06/21 06:04:37;;;;;;;2.03;1.12;;;;;;;21.21;40.82;99361.25;4410253;32;32006;-74
2022/06/21 06:07:05;;;;;;;2.65;1.20;;;;;;;21.52;40.35;99364.69;4397484;32;33066;-75
2022/06/21 06:09:42;;;;;;;1.90;1.10;;;;;;;21.27;40.45;99379.62;4410146;32;33946;-74
2022/06/21 06:12:23;;;;;;;1.75;0.93;;;;;;;21.21;40.21;99378.00;4397295;32;32797;-74
2022/06/21 06:18:16;;;;;;;6.80;1.17;;;;;;;21.48;38.92;99373.91;4200296;26;35431;-79
2022/06/21 06:20:47;;;;;;;2.85;1.10;;;;;;;21.15;37.73;99387.47;4454767;32;34817;-79
2022/06/21 06:23:20;;;;;;;5.30;1.02;;;;;;;21.29;37.59;99391.34;4455197;32;33213;-78
2022/06/21 06:25:59;;;;;;;4.57;1.20;;;;;;;20.78;38.22;99382.34;4453265;32;34522;-78
2022/06/21 06:28:44;;;;;;;3.33;1.30;;;;;;;21.20;37.66;99400.56;4412718;32;35334;-79
2022/06/21 06:31:36;;;;;;;4.85;1.02;;;;;;;21.57;36.99;99391.75;4425600;32;33901;-79
2022/06/21 06:34:09;;;;;;;4.30;1.42;;;;;;;21.35;36.58;99390.22;4425971;32;33254;-78
2022/06/21 06:36:42;;;;;;;3.22;0.90;;;;;;;21.29;36.55;99408.09;4412173;32;33243;-78
2022/06/21 06:39:20;;;;;;;2.20;1.10;;;;;;;21.58;36.08;99394.25;4424511;32;34249;-78
2022/06/21 06:42:02;;;;;;;2.60;1.00;;;;;;;22.08;36.01;99391.44;4413317;32;33940;-79
2022/06/21 06:44:42;;;;;;;4.35;1.10;;;;;;;22.03;36.05;99400.69;4421958;32;33151;-78
2022/06/21 06:47:25;;;;;;;2.17;0.90;;;;;;;22.14;35.52;99401.41;4427981;32;35265;-80
2022/06/21 06:53:38;;;;;;;3.50;1.08;;;;;;;22.13;37.02;99402.53;4443391;26;35451;-80
2022/06/21 06:56:18;;;;;;;2.83;1.10;;;;;;;22.14;36.68;99416.22;4415048;32;33610;-80
2022/06/21 06:58:52;;;;;;;4.72;1.40;;;;;;;21.86;36.54;99397.44;4446612;26;33662;-79
2022/06/21 07:01:24;;;;;;;4.60;1.20;;;;;;;22.22;36.56;99404.41;4404361;32;31920;-80
2022/06/21 07:03:58;;;;;;;3.55;1.05;;;;;;;22.64;36.47;99405.72;4424757;32;33243;-80
2022/06/21 07:06:41;;;;;;;2.33;1.23;;;;;;;22.68;35.53;99402.03;4425374;32;33940;-81
2022/06/21 07:09:20;;;;;;;3.12;1.30;;;;;;;22.53;35.04;99404.97;4424821;32;33095;-81
2022/06/21 07:12:17;;;;;;;4.75;1.20;;;;;;;22.60;33.87;99404.63;4412436;32;33919;-82
2022/06/21 07:14:47;;;;;;;4.50;1.20;;;;;;;21.96;34.11;99420.53;4408622;32;33969;-81
2022/06/21 07:17:21;;;;;;;4.45;1.15;;;;;;;21.81;35.14;99409.47;4412451;32;32723;-82
2022/06/21 07:19:50;;;;;;;8.85;1.45;;;;;;;22.00;34.84;99415.22;4424853;32;33718;-80
2022/06/21 07:22:20;;;;;;;5.20;1.30;;;;;;;21.84;34.71;99424.81;4398595;32;32961;-81
2022/06/21 07:24:57;;;;;;;4.35;1.02;;;;;;;21.95;34.60;99437.59;4411367;32;34148;-80
2022/06/21 07:27:29;;;;;;;4.20;1.20;;;;;;;21.80;35.65;99435.75;4425186;32;31702;-80
2022/06/21 07:30:09;;;;;;;4.62;1.02;;;;;;;22.29;35.17;99432.03;4425751;32;34760;-80
2022/06/21 07:32:46;;;;;;;1.33;0.90;;;;;;;22.51;32.27;99439.97;4425129;32;32626;-75
2022/06/21 07:35:58;;;;;;;2.25;0.98;;;;;;;22.36;32.08;99443.72;4425375;32;33688;-75
2022/06/21 07:38:33;;;;;;;8.00;1.25;;;;;;;22.57;31.60;99458.38;4431933;32;34049;-76
2022/06/21 07:41:14;;;;;;;3.90;1.47;;;;;;;22.82;31.67;99452.53;4425105;32;33299;-76
2022/06/21 07:43:51;;;;;;;5.47;1.15;;;;;;;22.91;31.25;99439.59;4438965;32;35274;-76
2022/06/21 07:46:48;;;;;;;8.55;1.25;;;;;;;22.82;30.92;99435.75;4399336;32;34512;-76
2022/06/21 07:49:40;;;;;;;3.50;1.00;;;;;;;22.35;31.14;99458.84;4396199;32;32186;-75
2022/06/21 07:52:24;;;;;;;3.12;1.05;;;;;;;22.78;31.38;99437.44;4412934;32;34744;-75
2022/06/21 07:55:03;;;;;;;3.65;1.17;;;;;;;22.73;31.07;99447.88;4425200;32;34402;-75
2022/06/21 07:57:43;;;;;;;14.48;1.62;;;;;;;23.02;31.93;99440.31;4424489;32;34150;-76
2022/06/21 08:00:15;;;;;;;5.10;1.17;;;;;;;23.27;30.48;99430.78;4412119;32;34228;-76
2022/06/21 08:08:38;;;;;;;4.30;1.10;;;;;;;23.37;30.11;99444.66;4427125;32;35202;-76
2022/06/21 08:11:23;;;;;;;5.90;1.20;;;;;;;23.45;30.20;99449.56;4425211;32;33109;-76
2022/06/21 08:13:51;;;;;;;4.10;1.17;;;;;;;23.46;30.06;99442.00;4424935;32;34416;-75
2022/06/21 08:16:28;;;;;;;4.65;1.45;;;;;;;23.29;30.75;99445.31;4425286;32;34697;-76
2022/06/21 08:19:02;;;;;;;5.03;1.15;;;;;;;23.59;31.30;99433.72;4424860;32;33355;-76
2022/06/21 08:21:51;;;;;;;3.78;1.17;;;;;;;23.89;30.48;99454.06;4437458;32;32808;-75
2022/06/21 08:24:28;;;;;;;2.85;1.20;;;;;;;23.81;28.57;99457.53;4431520;32;33634;-75
2022/06/21 08:26:59;;;;;;;6.65;1.20;;;;;;;24.09;28.59;99453.72;4424524;32;33914;-76
2022/06/21 08:29:35;;;;;;;2.67;0.95;;;;;;;24.13;28.21;99449.19;4424709;32;33172;-79
2022/06/21 08:32:20;;;;;;;5.15;1.10;;;;;;;24.11;28.00;99456.22;4424569;32;33799;-78
2022/06/21 08:34:52;;;;;;;4.15;1.12;;;;;;;24.48;27.84;99463.81;4429642;32;33803;-78
2022/06/21 08:37:55;;;;;;;2.97;1.23;;;;;;;24.55;27.78;99441.81;4410030;32;35641;-78
2022/06/21 08:40:48;;;;;;;3.12;0.93;;;;;;;24.77;27.28;99458.78;4393740;32;32879;-79
2022/06/21 08:43:34;;;;;;;6.07;1.27;;;;;;;24.99;28.91;99455.34;4409232;32;33088;-80
2022/06/21 08:46:17;;;;;;;8.98;1.08;;;;;;;24.80;29.04;99452.56;4409054;32;35097;-80
2022/06/21 08:49:03;;;;;;;6.07;1.23;;;;;;;24.62;28.92;99484.34;4409295;32;35253;-80
2022/06/21 08:52:06;;;;;;;;;;;;;;;24.82;28.01;99466.28;4395550;32;32556;-79
2022/06/21 08:54:51;;;;;;;4.60;1.10;;;;;;;25.14;26.85;99477.50;4388242;32;33560;-79
2022/06/21 08:57:44;;;;;;;6.28;1.10;;;;;;;25.16;25.65;99464.00;4399492;32;33851;-78
2022/06/21 09:00:38;;;;;;;4.85;1.17;;;;;;;25.13;25.81;99458.16;4408373;32;33041;-77
2022/06/21 09:03:30;;;;;;;3.45;1.20;;;;;;;25.16;26.16;99466.78;4399864;32;34461;-76
2022/06/21 09:06:43;;;;;;;5.00;1.37;;;;;;;24.94;26.07;99453.41;4423489;32;34790;-78
2022/06/21 09:09:58;;;;;;;6.78;1.33;;;;;;;25.20;27.81;99451.00;4372567;32;35105;-80
2022/06/21 09:12:55;;;;;;;6.35;1.85;;;;;;;25.55;26.71;99446.59;4360298;32;33668;-80
2022/06/21 09:15:49;;;;;;;6.95;1.42;;;;;;;25.64;26.07;99452.34;4355774;32;32488;-80
2022/06/21 09:18:34;;;;;;;5.85;1.10;;;;;;;25.54;26.45;99469.38;4344497;32;31916;-80
2022/06/21 09:21:36;;;;;;;5.87;1.30;;;;;;;26.08;25.57;99473.28;4352895;32;33073;-77
2022/06/21 09:24:41;;;;;;;5.67;1.60;;;;;;;26.19;25.17;99449.38;4357694;32;33601;-81
2022/06/21 09:27:38;;;;;;;2.97;1.05;;;;;;;26.54;25.58;99462.59;4384616;32;34105;-80
2022/06/21 09:30:41;;;;;;;3.17;1.27;;;;;;;26.11;24.24;99475.44;4406212;32;32333;-80
2022/06/21 09:33:24;;;;;;;6.70;1.20;;;;;;;26.38;24.99;99455.69;4401343;32;33223;-80
2022/06/21 09:36:18;;;;;;;4.00;1.20;;;;;;;26.49;24.73;99464.72;4405004;32;33465;-79
2022/06/21 09:43:46;;;;;;;4.35;1.10;;;;;;;27.17;24.22;99440.97;4363252;32;32758;-79
2022/06/21 09:50:05;;;;;;;2.62;1.05;;;;;;;27.37;24.58;99456.44;4368973;32;33108;-79
2022/06/21 09:53:18;;;;;;;4.07;0.88;;;;;;;27.29;23.74;99460.06;4372076;32;33880;-79
2022/06/21 09:56:22;;;;;;;4.85;0.95;;;;;;;27.61;24.03;99454.06;4372769;32;34290;-77
2022/06/21 09:59:14;;;;;;;3.97;1.23;;;;;;;27.74;23.79;99461.56;4382823;32;32273;-77
2022/06/21 10:02:46;;;;;;;2.35;0.90;;;;;;;27.09;23.80;99462.28;4391515;32;33948;-77
2022/06/21 10:05:34;;;;;;;2.62;0.90;;;;;;;27.83;23.93;99448.31;4399300;32;32313;-77
2022/06/21 10:08:50;;;;;;;4.20;1.10;;;;;;;28.00;23.46;99449.47;4397343;32;31792;-77
2022/06/21 10:12:15;;;;;;;5.30;1.02;;;;;;;28.12;23.30;99452.47;4391744;32;33682;-77
2022/06/21 10:15:28;;;;;;;3.67;1.05;;;;;;;28.29;22.12;99444.03;4356924;32;34141;-77
2022/06/21 10:18:34;;;;;;;4.03;1.00;;;;;;;27.41;22.79;99452.63;4360136;32;34300;-77
2022/06/21 10:21:27;;;;;;;4.20;1.00;;;;;;;27.63;22.75;99443.28;4343679;32;32391;-77
2022/06/21 10:24:20;;;;;;;5.78;1.25;;;;;;;27.77;22.62;99438.34;4347681;32;34215;-77
2022/06/21 10:27:11;;;;;;;2.50;0.90;;;;;;;27.55;22.77;99460.97;4336522;32;35131;-77
2022/06/21 10:30:24;;;;;;;2.37;1.00;;;;;;;27.94;22.87;99436.72;4345690;32;34625;-77
2022/06/21 10:37:05;;;;;;;5.87;1.10;;;;;;;28.54;22.04;99456.50;4346969;32;32710;-77
2022/06/21 10:40:13;;;;;;;2.42;0.90;;;;;;;28.36;22.33;99447.19;4331539;33;33928;-78
2022/06/21 10:47:08;;;;;;;2.47;0.80;;;;;;;28.94;21.76;99439.31;4367611;32;32974;-77
2022/06/21 10:49:49;;;;;;;3.92;1.02;;;;;;;29.27;20.94;99440.31;4363160;32;34493;-77
2022/06/21 10:52:36;;;;;;;3.05;0.93;;;;;;;29.06;19.70;99434.63;4376616;32;33948;-78
2022/06/21 10:55:03;;;;;;;1.92;0.80;;;;;;;28.47;20.58;99440.03;4368565;32;35222;-78
2022/06/21 10:57:43;;;;;;;2.87;1.00;;;;;;;28.74;20.94;99452.94;4376413;32;33275;-75
2022/06/21 11:03:30;;;;;;;5.43;0.90;;;;;;;29.47;21.28;99452.91;4368369;32;33009;-77
2022/06/21 11:06:15;;;;;;;1.77;0.65;;;;;;;29.28;20.71;99453.28;4366978;32;33655;-76
2022/06/21 11:09:06;;;;;;;9.43;1.53;;;;;;;29.24;20.18;99448.69;4366560;32;33684;-76
2022/06/21 11:11:58;;;;;;;2.33;0.82;;;;;;;30.02;21.29;99452.75;4366298;32;32231;-75
2022/06/21 11:14:50;;;;;;;6.30;1.42;;;;;;;29.35;20.38;99458.41;4378837;32;34382;-76
2022/06/21 11:17:37;;;;;;;2.10;0.93;;;;;;;28.59;21.36;99445.03;4379121;32;33879;-79
2022/06/21 11:20:54;;;;;;;2.53;0.93;;;;;;;28.36;21.67;99444.37;4378774;32;32824;-81
2022/06/21 11:24:03;;;;;;;2.90;1.10;;;;;;;28.62;21.98;99454.78;4371110;32;31867;-81
2022/06/21 11:26:58;;;;;;;3.53;1.00;;;;;;;29.52;21.53;99441.41;4401934;32;33399;-77
2022/06/21 11:29:54;;;;;;;3.95;1.30;;;;;;;29.34;20.25;99466.06;4396965;32;33974;-79
2022/06/21 11:32:40;;;;;;;3.58;1.23;;;;;;;29.23;20.45;99458.34;4394768;32;33263;-78
2022/06/21 11:35:29;;;;;;;2.67;0.95;;;;;;;29.35;21.36;99453.59;4388871;32;32607;-78
2022/06/21 11:38:06;;;;;;;1.50;0.68;;;;;;;29.21;20.59;99444.53;4401528;32;35346;-78
2022/06/21 11:40:57;;;;;;;2.22;1.00;;;;;;;29.44;21.55;99462.06;4401988;32;34480;-77
2022/06/21 11:43:49;;;;;;;4.40;1.15;;;;;;;29.85;20.88;99458.53;4396317;32;32722;-78
2022/06/21 11:46:33;;;;;;;6.75;1.10;;;;;;;30.06;20.45;99464.22;4411017;32;34501;-76
2022/06/21 11:49:21;;;;;;;3.62;1.12;;;;;;;30.33;19.81;99463.69;4397864;32;32883;-78
2022/06/21 11:52:01;;;;;;;3.12;1.10;;;;;;;30.70;19.95;99476.00;4409453;32;33155;-78
2022/06/21 11:54:39;;;;;;;2.47;0.93;;;;;;;30.57;20.32;99459.28;4409719;32;33475;-78
2022/06/21 11:57:38;;;;;;;4.12;1.17;;;;;;;30.26;19.89;99460.56;4422126;32;32368;-78
2022/06/21 12:00:11;;;;;;;2.28;0.90;;;;;;;30.15;19.65;99462.16;4391756;32;32878;-78
2022/06/21 12:02:54;;;;;;;2.30;0.80;;;;;;;30.04;18.27;99453.25;4424811;32;33636;-78
2022/06/21 12:05:30;;;;;;;3.40;0.85;;;;;;;28.90;18.66;99473.06;4423723;32;34017;-79
2022/06/21 12:08:08;;;;;;;3.60;0.82;;;;;;;29.01;19.18;99453.75;4418072;32;34989;-78
2022/06/21 12:10:51;;;;;;;3.15;1.00;;;;;;;29.58;19.27;99459.84;4425001;32;35109;-78
2022/06/21 12:13:47;;;;;;;2.12;0.80;;;;;;;29.86;19.10;99460.19;4392382;32;33348;-77
2022/06/21 12:16:32;;;;;;;5.25;1.15;;;;;;;29.85;18.61;99460.53;4430364;32;33316;-77
2022/06/21 12:19:44;;;;;;;2.80;0.90;;;;;;;28.79;19.28;99454.75;4416310;32;34776;-78
2022/06/21 12:27:02;;;;;;;2.90;0.93;;;;;;;28.90;20.40;99456.09;4428646;32;32739;-81
2022/06/21 12:29:40;;;;;;;4.30;0.90;;;;;;;29.08;21.19;99426.62;4416873;32;33150;-77
2022/06/21 12:33:13;;;;;;;3.62;0.80;;;;;;;29.50;20.34;99438.09;4403921;32;32788;-77
2022/06/21 12:36:22;;;;;;;2.35;0.88;;;;;;;29.58;20.15;99430.72;4407464;32;34038;-78
2022/06/21 12:43:01;;;;;;;1.87;1.00;;;;;;;29.50;19.79;99430.44;4415233;32;33268;-77
2022/06/21 12:46:01;;;;;;;8.10;1.48;;;;;;;30.05;20.08;99428.59;4417972;32;33759;-77
2022/06/21 12:49:06;;;;;;;4.18;1.00;;;;;;;29.62;20.19;99424.06;4406511;32;32856;-77
2022/06/21 12:52:41;;;;;;;2.90;1.00;;;;;;;30.11;20.72;99432.88;4416437;32;32781;-77
2022/06/21 12:55:58;;;;;;;5.62;1.00;;;;;;;29.45;19.62;99432.62;4402386;32;31699;-77
2022/06/21 12:58:54;;;;;;;;;;;;;;;29.20;20.06;99430.75;4399163;32;33960;-77
2022/06/21 13:01:50;;;;;;;1.65;0.80;;;;;;;28.84;20.62;99418.72;4419485;32;33016;-77
2022/06/21 13:05:00;;;;;;;2.55;0.90;;;;;;;29.44;19.98;99406.34;4429518;32;34021;-77
2022/06/21 13:07:49;;;;;;;8.57;1.20;;;;;;;28.75;19.43;99423.53;4430488;32;33989;-78
2022/06/21 13:10:25;;;;;;;3.83;0.98;;;;;;;28.22;19.96;99421.13;4406217;32;33438;-77
2022/06/21 13:13:37;;;;;;;3.45;1.00;;;;;;;28.32;20.72;99426.44;4397348;32;33083;-77
2022/06/21 13:16:44;;;;;;;4.82;1.30;;;;;;;28.36;21.15;99420.97;4360162;32;32488;-78
2022/06/21 13:19:19;;;;;;;3.42;0.95;;;;;;;27.88;21.80;99414.31;4437713;32;33704;-77
2022/06/21 13:22:59;;;;;;;2.72;0.93;;;;;;;28.04;21.88;99408.97;4429332;32;33611;-77
2022/06/21 13:25:41;;;;;;;8.73;1.30;;;;;;;27.69;21.79;99410.97;4419073;32;34758;-78
2022/06/21 13:28:12;;;;;;;9.23;1.23;;;;;;;28.03;20.72;99420.59;4417116;32;32573;-77